Time;durP1;ratioP1;P1;durP2;ratioP2;P2;SDS_P1;SDS_P2;PMS_P1;PMS_P2;Temp;Humidity;BMP_temperature;BMP_pressure;BME280_temperature;BME280_humidity;BME280_pressure;Samples;Min_cycle;Max_cycle;Signal;HPM_P1;HPM_P2
2022/09/03 00:01:00;;;;;;;2.17;0.70;;;11.30;99.90;;;;;;4971839;28;20380;-78
2022/09/03 00:03:30;;;;;;;2.47;0.60;;;11.30;99.90;;;;;;4972166;28;20415;-78
2022/09/03 00:06:21;;;;;;;1.10;0.50;;;11.40;99.90;;;;;;4971370;28;20375;-78
2022/09/03 00:09:09;;;;;;;2.30;0.40;;;11.40;99.90;;;;;;4971981;28;20383;-77
2022/09/03 00:12:00;;;;;;;1.73;0.50;;;11.20;99.90;;;;;;4971250;28;20382;-80
2022/09/03 00:14:50;;;;;;;3.15;0.60;;;11.20;99.90;;;;;;4980439;28;20450;-77
2022/09/03 00:17:45;;;;;;;2.45;0.47;;;11.20;99.90;;;;;;5013678;28;20411;-77
2022/09/03 00:20:22;;;;;;;1.45;0.40;;;11.20;99.90;;;;;;4974751;28;20882;-79
2022/09/03 00:22:56;;;;;;;1.67;0.60;;;11.30;99.90;;;;;;4973942;28;20414;-78
2022/09/03 00:25:38;;;;;;;1.85;0.60;;;11.40;99.90;;;;;;4971980;28;20807;-77
2022/09/03 00:28:14;;;;;;;2.85;0.60;;;11.40;99.90;;;;;;4971421;28;20845;-78
2022/09/03 00:30:44;;;;;;;0.82;0.45;;;11.40;99.90;;;;;;4971481;28;20390;-78
2022/09/03 00:33:18;;;;;;;1.58;0.50;;;11.40;99.90;;;;;;5012360;28;20453;-79
2022/09/03 00:36:19;;;;;;;1.70;0.50;;;11.40;99.90;;;;;;5030340;28;20444;-77
2022/09/03 00:38:46;;;;;;;1.52;0.77;;;11.40;99.90;;;;;;4991176;28;20383;-78
2022/09/03 00:41:40;;;;;;;2.40;0.73;;;11.50;99.90;;;;;;4974765;28;20393;-78
2022/09/03 00:44:20;;;;;;;2.65;1.52;;;11.50;99.90;;;;;;4986950;28;20888;-78
2022/09/03 00:47:19;;;;;;;2.47;0.60;;;11.50;99.90;;;;;;4992556;28;20361;-77
2022/09/03 00:50:11;;;;;;;3.03;0.70;;;11.50;99.90;;;;;;4972521;28;20869;-79
2022/09/03 00:52:51;;;;;;;1.98;0.63;;;11.60;99.90;;;;;;4972575;28;20379;-79
2022/09/03 00:55:46;;;;;;;1.15;0.60;;;11.60;99.90;;;;;;4973762;28;20394;-79
2022/09/03 00:58:42;;;;;;;2.47;0.60;;;11.70;99.90;;;;;;4941699;28;20521;-78
2022/09/03 01:01:22;;;;;;;0.93;0.50;;;11.80;99.90;;;;;;4954114;29;20550;-79
2022/09/03 01:04:24;;;;;;;4.68;0.80;;;11.70;99.90;;;;;;4954384;29;20377;-79
2022/09/03 01:06:59;;;;;;;5.93;1.05;;;11.80;99.90;;;;;;4948276;28;20397;-78
2022/09/03 01:09:49;;;;;;;5.53;0.70;;;11.80;99.90;;;;;;4953078;29;20857;-80
2022/09/03 01:12:38;;;;;;;3.15;0.77;;;11.70;99.90;;;;;;4952721;29;20757;-80
2022/09/03 01:15:16;;;;;;;5.80;0.85;;;11.60;99.90;;;;;;4991464;28;20374;-78
2022/09/03 01:18:10;;;;;;;1.92;0.70;;;11.60;99.90;;;;;;5030086;28;20417;-77
2022/09/03 01:20:42;;;;;;;2.40;0.60;;;11.60;99.90;;;;;;5030737;28;20506;-76
2022/09/03 01:23:34;;;;;;;0.80;0.50;;;11.60;99.90;;;;;;5032669;28;20968;-77
2022/09/03 01:26:39;;;;;;;1.85;0.52;;;11.70;99.90;;;;;;5044584;28;20374;-77
2022/09/03 01:29:24;;;;;;;1.23;0.60;;;12.00;99.90;;;;;;5069859;28;20386;-77
2022/09/03 01:32:41;;;;;;;3.35;1.00;;;12.00;99.90;;;;;;5076101;28;20369;-76
2022/09/03 01:35:27;;;;;;;1.92;0.60;;;12.20;99.90;;;;;;5075382;28;20397;-77
2022/09/03 01:38:24;;;;;;;3.10;0.80;;;12.30;99.90;;;;;;5075368;28;20853;-75
2022/09/03 01:44:11;;;;;;;2.75;0.93;;;12.50;99.90;;;;;;5075023;28;20373;-77
2022/09/03 01:46:40;;;;;;;2.43;0.80;;;12.70;99.90;;;;;;5075804;28;20429;-76
2022/09/03 01:49:30;;;;;;;2.25;0.80;;;12.90;99.90;;;;;;5074931;28;20366;-77
2022/09/03 01:52:14;;;;;;;1.88;0.80;;;13.10;99.90;;;;;;5075775;28;20373;-77
2022/09/03 01:54:41;;;;;;;2.28;0.80;;;13.30;99.90;;;;;;5074481;28;20838;-78
2022/09/03 01:57:24;;;;;;;2.33;0.87;;;13.20;99.90;;;;;;5074613;28;20398;-74
2022/09/03 02:00:20;;;;;;;6.60;1.17;;;13.40;99.90;;;;;;5074731;28;20377;-74
2022/09/03 02:02:52;;;;;;;6.23;1.30;;;13.60;99.90;;;;;;5033407;28;20859;-74
2022/09/03 02:05:25;;;;;;;3.58;1.10;;;13.70;99.90;;;;;;5033184;28;20366;-74
2022/09/03 02:08:00;;;;;;;3.28;1.10;;;13.70;99.90;;;;;;5033195;28;20377;-73
2022/09/03 02:10:51;;;;;;;7.77;1.20;;;13.70;99.90;;;;;;5036864;28;20864;-74
2022/09/03 02:13:35;;;;;;;5.22;1.20;;;13.50;99.90;;;;;;5036962;28;20385;-74
2022/09/03 02:16:14;;;;;;;5.97;1.38;;;13.50;99.90;;;;;;5036167;28;20402;-74
2022/09/03 02:18:51;;;;;;;4.90;1.20;;;13.70;99.90;;;;;;5034264;28;20897;-74
2022/09/03 02:21:24;;;;;;;4.95;1.20;;;13.80;99.90;;;;;;5033016;28;20398;-74
2022/09/03 02:23:52;;;;;;;4.07;1.02;;;14.10;99.90;;;;;;5032917;28;20869;-75
2022/09/03 02:26:23;;;;;;;7.03;1.40;;;14.20;99.90;;;;;;5032872;28;20449;-74
2022/09/03 02:28:52;;;;;;;5.82;1.40;;;14.60;99.90;;;;;;5033221;28;20412;-75
2022/09/03 02:31:27;;;;;;;7.05;1.60;;;14.90;99.90;;;;;;5032621;28;20789;-75
2022/09/03 02:33:56;;;;;;;5.43;1.50;;;15.10;99.90;;;;;;5031367;28;20472;-74
2022/09/03 02:36:41;;;;;;;5.83;1.40;;;15.40;99.90;;;;;;5031918;28;20412;-74
2022/09/03 02:39:08;;;;;;;7.43;1.65;;;15.70;99.90;;;;;;5052958;28;20415;-74
2022/09/03 02:41:35;;;;;;;7.83;1.60;;;15.50;99.90;;;;;;5073969;28;20387;-74
2022/09/03 02:44:08;;;;;;;7.40;1.70;;;15.00;99.90;;;;;;5073816;28;20515;-75
2022/09/03 02:46:38;;;;;;;5.50;1.43;;;14.40;99.90;;;;;;5073812;28;20374;-74
2022/09/03 02:49:06;;;;;;;8.83;1.90;;;13.90;99.90;;;;;;5073737;28;20374;-74
2022/09/03 02:51:40;;;;;;;8.40;2.00;;;13.60;99.90;;;;;;5073771;28;20770;-74
2022/09/03 02:54:09;;;;;;;10.73;2.10;;;13.50;99.90;;;;;;5073950;28;20366;-75
2022/09/03 02:56:36;;;;;;;7.90;2.13;;;13.60;99.90;;;;;;5073594;28;20401;-75
2022/09/03 02:59:05;;;;;;;8.07;1.90;;;13.60;99.90;;;;;;5074258;28;20371;-74
2022/09/03 03:01:33;;;;;;;10.50;2.13;;;13.50;99.90;;;;;;5074004;28;20376;-74
2022/09/03 03:04:01;;;;;;;10.07;2.10;;;13.70;99.90;;;;;;5073810;28;20465;-74
2022/09/03 03:06:28;;;;;;;9.02;2.00;;;13.80;99.90;;;;;;5073536;28;20759;-74
2022/09/03 03:08:56;;;;;;;10.57;2.10;;;13.90;99.90;;;;;;5073314;28;20726;-73
2022/09/03 03:11:25;;;;;;;8.32;1.95;;;14.10;99.90;;;;;;5072389;28;20794;-73
2022/09/03 03:13:52;;;;;;;9.43;1.90;;;14.30;99.90;;;;;;5072191;28;20477;-73
2022/09/03 03:16:21;;;;;;;10.27;2.30;;;14.60;99.90;;;;;;5073008;28;20401;-74
2022/09/03 03:18:49;;;;;;;10.95;2.03;;;14.90;99.90;;;;;;5071563;28;20362;-74
2022/09/03 03:21:17;;;;;;;12.10;2.28;;;15.00;99.90;;;;;;5071689;28;20382;-75
2022/09/03 03:23:45;;;;;;;9.75;2.05;;;15.10;99.90;;;;;;5071364;28;20908;-74
2022/09/03 03:26:19;;;;;;;10.90;2.35;;;15.10;99.90;;;;;;5071355;28;20383;-75
2022/09/03 03:28:50;;;;;;;9.88;1.90;;;15.00;99.90;;;;;;5071266;28;20500;-75
2022/09/03 03:31:21;;;;;;;8.77;1.77;;;15.10;99.90;;;;;;5071122;28;20961;-75
2022/09/03 03:34:00;;;;;;;8.38;1.75;;;15.00;99.90;;;;;;5070757;28;20390;-74
2022/09/03 03:36:31;;;;;;;10.48;2.25;;;14.90;99.90;;;;;;5070701;28;20485;-74
2022/09/03 03:39:00;;;;;;;9.98;2.00;;;14.90;99.90;;;;;;5070708;28;20765;-75
2022/09/03 03:41:33;;;;;;;7.07;1.90;;;14.90;99.90;;;;;;5070991;28;20836;-75
2022/09/03 03:44:02;;;;;;;9.68;1.90;;;14.90;99.90;;;;;;5068714;28;20374;-74
2022/09/03 03:46:33;;;;;;;10.10;1.92;;;14.80;99.90;;;;;;5070863;28;20409;-75
2022/09/03 03:49:00;;;;;;;6.70;1.80;;;14.80;99.90;;;;;;5070584;28;20405;-74
2022/09/03 03:51:29;;;;;;;7.50;1.70;;;14.70;99.90;;;;;;5070528;28;20506;-74
2022/09/03 03:53:57;;;;;;;7.75;2.40;;;14.60;99.90;;;;;;5070969;28;20730;-75
2022/09/03 03:56:26;;;;;;;8.55;1.73;;;14.40;99.90;;;;;;5071728;28;20409;-75
2022/09/03 03:58:54;;;;;;;10.68;2.60;;;14.30;99.90;;;;;;5072716;28;20813;-75
2022/09/03 04:01:24;;;;;;;7.83;2.17;;;14.20;99.90;;;;;;5073341;28;20374;-75
2022/09/03 04:03:54;;;;;;;9.43;2.03;;;14.30;99.90;;;;;;5072562;28;20431;-75
2022/09/03 04:06:21;;;;;;;10.02;2.40;;;14.40;99.90;;;;;;5073098;28;20369;-75
2022/09/03 04:08:49;;;;;;;10.32;2.58;;;14.40;99.90;;;;;;5072397;28;20378;-74
2022/09/03 04:11:20;;;;;;;9.82;2.03;;;14.40;99.90;;;;;;5073161;28;20415;-75
2022/09/03 04:13:48;;;;;;;9.43;2.30;;;14.40;99.90;;;;;;5072573;28;20810;-75
2022/09/03 04:16:17;;;;;;;10.67;2.10;;;14.60;99.90;;;;;;5074317;28;20432;-75
2022/09/03 04:18:45;;;;;;;8.00;1.90;;;14.60;99.90;;;;;;5074072;28;20457;-74
2022/09/03 04:21:18;;;;;;;9.88;2.47;;;14.60;99.90;;;;;;5073859;28;20386;-82
2022/09/03 04:23:47;;;;;;;9.80;2.30;;;14.70;99.90;;;;;;5072504;28;20776;-73
2022/09/03 04:26:22;;;;;;;10.77;2.50;;;14.70;99.90;;;;;;5073244;28;20730;-75
2022/09/03 04:28:50;;;;;;;13.77;2.70;;;14.70;99.90;;;;;;5072873;28;20370;-75
2022/09/03 04:31:19;;;;;;;10.48;2.63;;;14.90;99.90;;;;;;5072105;28;20372;-78
2022/09/03 04:33:47;;;;;;;13.00;2.90;;;14.90;99.90;;;;;;5071956;28;20401;-77
2022/09/03 04:36:22;;;;;;;11.32;2.60;;;15.00;99.90;;;;;;5072012;28;20810;-78
2022/09/03 04:38:52;;;;;;;11.07;2.80;;;15.10;99.90;;;;;;5072337;28;20741;-81
2022/09/03 04:41:25;;;;;;;12.50;2.58;;;15.10;99.90;;;;;;5072093;28;20445;-76
2022/09/03 04:43:58;;;;;;;15.40;2.80;;;15.10;99.90;;;;;;5071938;28;20435;-77
2022/09/03 04:46:31;;;;;;;10.18;2.80;;;15.00;99.90;;;;;;5070701;28;20381;-77
2022/09/03 04:48:59;;;;;;;11.57;2.72;;;15.00;99.90;;;;;;5072228;28;20457;-77
2022/09/03 04:51:28;;;;;;;12.32;2.90;;;15.00;99.90;;;;;;5072089;28;20370;-75
2022/09/03 04:53:58;;;;;;;11.32;2.80;;;15.10;99.90;;;;;;5072502;28;20806;-77
2022/09/03 04:56:29;;;;;;;11.55;2.58;;;15.20;99.90;;;;;;5074114;28;20726;-76
2022/09/03 04:59:03;;;;;;;12.70;2.90;;;15.50;99.90;;;;;;5081322;28;20491;-76
2022/09/03 05:01:33;;;;;;;14.70;2.92;;;15.70;99.90;;;;;;5077392;28;20362;-77
2022/09/03 05:04:01;;;;;;;14.52;2.90;;;15.80;99.90;;;;;;5077637;28;20362;-79
2022/09/03 05:06:30;;;;;;;14.10;2.88;;;16.00;99.90;;;;;;5076458;28;20374;-77
2022/09/03 05:08:58;;;;;;;14.18;3.00;;;16.20;99.90;;;;;;5076636;28;20861;-76
2022/09/03 05:11:31;;;;;;;13.32;2.80;;;16.30;99.90;;;;;;5076508;28;20428;-78
2022/09/03 05:14:00;;;;;;;11.27;2.60;;;16.40;99.90;;;;;;5075436;28;20858;-78
2022/09/03 05:16:29;;;;;;;11.63;2.47;;;16.50;99.90;;;;;;5075460;28;20463;-78
2022/09/03 05:18:58;;;;;;;14.10;2.83;;;16.40;99.90;;;;;;5076935;28;20378;-79
2022/09/03 05:21:26;;;;;;;13.33;2.70;;;16.20;99.90;;;;;;5076247;28;20362;-78
2022/09/03 05:23:54;;;;;;;10.55;2.55;;;15.90;99.90;;;;;;5078140;28;20366;-78
2022/09/03 05:26:27;;;;;;;12.60;2.70;;;15.70;99.90;;;;;;5077866;28;20435;-77
2022/09/03 05:29:00;;;;;;;15.02;2.85;;;15.60;99.90;;;;;;5080884;28;20374;-77
2022/09/03 05:31:30;;;;;;;13.82;2.70;;;15.40;99.90;;;;;;5078048;28;20842;-80
2022/09/03 05:34:00;;;;;;;12.15;2.50;;;15.00;99.90;;;;;;5077474;28;20440;-80
2022/09/03 05:36:30;;;;;;;11.38;2.70;;;14.50;99.90;;;;;;5077401;28;20393;-78
2022/09/03 05:38:58;;;;;;;13.23;2.42;;;14.10;99.90;;;;;;5076801;28;20402;-79
2022/09/03 05:41:27;;;;;;;12.48;2.75;;;13.90;99.90;;;;;;5076294;28;20374;-78
2022/09/03 05:43:57;;;;;;;13.57;2.65;;;13.70;99.90;;;;;;5075700;28;20551;-77
2022/09/03 05:46:30;;;;;;;14.18;2.50;;;13.60;99.90;;;;;;5075546;28;20370;-76
2022/09/03 05:49:03;;;;;;;14.90;2.80;;;13.60;99.90;;;;;;5075314;28;20753;-78
2022/09/03 05:51:32;;;;;;;21.57;3.00;;;13.40;99.90;;;;;;5075270;28;20499;-77
2022/09/03 05:54:00;;;;;;;11.98;2.42;;;13.20;99.90;;;;;;5074834;28;20966;-75
2022/09/03 05:56:31;;;;;;;21.45;3.38;;;13.00;99.90;;;;;;5074822;28;20406;-75
2022/09/03 05:59:00;;;;;;;11.13;2.40;;;12.80;99.90;;;;;;5074642;28;20378;-77
2022/09/03 06:01:38;;;;;;;19.88;3.20;;;12.60;99.90;;;;;;5074725;28;20374;-79
2022/09/03 06:04:08;;;;;;;9.27;2.23;;;12.50;99.90;;;;;;5073203;28;20374;-75
2022/09/03 06:06:37;;;;;;;9.97;2.17;;;12.50;99.90;;;;;;5074557;28;20536;-77
2022/09/03 06:09:07;;;;;;;11.17;2.20;;;12.40;99.90;;;;;;5073183;28;20898;-76
2022/09/03 06:11:36;;;;;;;10.13;2.10;;;12.50;99.90;;;;;;5074707;28;20397;-77
2022/09/03 06:14:05;;;;;;;11.95;2.30;;;12.60;99.90;;;;;;5074380;28;20398;-76
2022/09/03 06:16:34;;;;;;;9.18;2.22;;;12.60;99.90;;;;;;5074128;28;20402;-79
2022/09/03 06:19:06;;;;;;;12.85;2.75;;;12.70;99.90;;;;;;5073801;28;20781;-76
2022/09/03 06:21:35;;;;;;;13.38;2.72;;;12.70;99.90;;;;;;5074204;28;20386;-76
2022/09/03 06:24:03;;;;;;;13.07;2.60;;;12.80;99.90;;;;;;5074271;28;20416;-76
2022/09/03 06:26:30;;;;;;;12.18;2.60;;;12.80;99.90;;;;;;5074150;28;20424;-75
2022/09/03 06:28:58;;;;;;;12.70;2.67;;;12.80;99.90;;;;;;5074400;28;20370;-75
2022/09/03 06:31:26;;;;;;;12.38;2.30;;;12.80;99.90;;;;;;5073840;28;20382;-76
2022/09/03 06:33:54;;;;;;;8.23;1.88;;;12.80;99.90;;;;;;5073746;28;20393;-81
2022/09/03 06:36:23;;;;;;;6.95;1.63;;;12.70;99.90;;;;;;5073749;28;20422;-80
2022/09/03 06:38:55;;;;;;;6.68;1.60;;;12.70;99.90;;;;;;5073914;28;20379;-81
2022/09/03 06:41:31;;;;;;;6.80;1.50;;;12.70;99.90;;;;;;5074406;28;20398;-77
2022/09/03 06:44:01;;;;;;;8.52;1.50;;;12.60;99.90;;;;;;5073610;28;20368;-77
2022/09/03 06:46:30;;;;;;;6.57;1.10;;;12.50;99.90;;;;;;5073515;28;20370;-78
2022/09/03 06:48:58;;;;;;;8.38;1.58;;;12.40;99.90;;;;;;5073574;28;20729;-78
2022/09/03 06:51:27;;;;;;;6.72;1.60;;;12.40;99.90;;;;;;5073505;28;20382;-77
2022/09/03 06:54:00;;;;;;;9.85;1.70;;;12.30;99.90;;;;;;5073479;28;20377;-77
2022/09/03 06:56:27;;;;;;;8.80;1.70;;;12.20;99.90;;;;;;5073016;28;20884;-76
2022/09/03 06:58:59;;;;;;;8.63;1.77;;;12.10;99.90;;;;;;5073335;28;20370;-80
2022/09/03 07:01:29;;;;;;;8.68;1.85;;;12.00;99.90;;;;;;5073284;28;20362;-78
2022/09/03 07:03:59;;;;;;;6.93;2.08;;;12.00;99.90;;;;;;5073050;28;20770;-78
2022/09/03 07:06:29;;;;;;;7.57;1.70;;;11.90;99.90;;;;;;5073349;28;20366;-77
2022/09/03 07:08:58;;;;;;;8.95;1.77;;;11.90;99.90;;;;;;5073236;28;20362;-78
2022/09/03 07:11:29;;;;;;;8.13;1.73;;;11.90;99.90;;;;;;5073123;28;20371;-77
2022/09/03 07:13:57;;;;;;;7.03;1.75;;;11.90;99.90;;;;;;5073378;28;20401;-78
2022/09/03 07:16:33;;;;;;;10.27;1.60;;;11.90;99.90;;;;;;5072864;28;20402;-78
2022/09/03 07:19:02;;;;;;;9.30;1.67;;;11.90;99.90;;;;;;5073083;28;20374;-82
2022/09/03 07:21:32;;;;;;;7.73;1.77;;;11.90;99.90;;;;;;5072685;28;20378;-79
2022/09/03 07:24:01;;;;;;;9.05;1.55;;;11.90;99.90;;;;;;5073048;28;20363;-78
2022/09/03 07:26:31;;;;;;;7.75;1.70;;;11.90;99.90;;;;;;5070811;28;20378;-80
2022/09/03 07:28:59;;;;;;;7.43;1.40;;;11.90;99.90;;;;;;5054606;28;20416;-75
2022/09/03 07:31:29;;;;;;;12.07;1.75;;;11.90;99.90;;;;;;5070526;28;20776;-76
2022/09/03 07:33:58;;;;;;;10.63;1.70;;;11.80;99.90;;;;;;5070490;28;20394;-77
2022/09/03 07:36:27;;;;;;;10.05;1.60;;;11.80;99.90;;;;;;5070997;28;20416;-78
2022/09/03 07:38:58;;;;;;;8.70;1.65;;;11.80;99.90;;;;;;5071122;28;20404;-77
2022/09/03 07:41:27;;;;;;;9.80;1.88;;;11.70;99.90;;;;;;5077374;28;20375;-78
2022/09/03 07:43:54;;;;;;;8.75;1.75;;;11.80;99.90;;;;;;5078085;28;20401;-76
2022/09/03 07:46:26;;;;;;;9.73;1.60;;;11.70;99.90;;;;;;5075964;28;20377;-76
2022/09/03 07:48:58;;;;;;;10.25;1.70;;;11.70;99.90;;;;;;5081763;28;20366;-77
2022/09/03 07:51:28;;;;;;;9.57;1.50;;;11.60;99.90;;;;;;5089751;28;20396;-75
2022/09/03 07:53:57;;;;;;;8.98;1.50;;;11.50;99.90;;;;;;5090951;28;20354;-75
2022/09/03 07:56:26;;;;;;;11.10;1.70;;;11.50;99.90;;;;;;5091224;28;20390;-77
2022/09/03 07:58:57;;;;;;;10.95;1.65;;;11.40;99.90;;;;;;5071522;28;20381;-76
2022/09/03 08:01:27;;;;;;;9.48;1.70;;;11.30;99.90;;;;;;5071073;28;20488;-77
2022/09/03 08:03:55;;;;;;;8.17;1.60;;;11.20;99.90;;;;;;5071728;28;20386;-76
2022/09/03 08:06:24;;;;;;;7.95;1.80;;;11.20;99.90;;;;;;5072533;28;20369;-75
2022/09/03 08:08:57;;;;;;;7.60;1.73;;;11.10;99.90;;;;;;5073110;28;20378;-76
2022/09/03 08:11:26;;;;;;;6.03;1.53;;;11.00;99.90;;;;;;5070168;28;20445;-77
2022/09/03 08:14:07;;;;;;;7.78;1.70;;;11.00;99.90;;;;;;5072484;28;20370;-76
2022/09/03 08:16:44;;;;;;;6.03;1.45;;;11.00;99.90;;;;;;5072123;28;20777;-77
2022/09/03 08:19:12;;;;;;;9.82;1.90;;;10.90;99.90;;;;;;5072229;28;20416;-76
2022/09/03 08:21:42;;;;;;;4.90;1.40;;;10.90;99.90;;;;;;5072271;28;20441;-77
2022/09/03 08:24:11;;;;;;;9.85;1.60;;;10.90;99.90;;;;;;5072367;28;20370;-78
2022/09/03 08:26:41;;;;;;;5.70;1.52;;;10.90;99.90;;;;;;5072346;28;20405;-77
2022/09/03 08:29:09;;;;;;;9.43;1.45;;;10.90;99.90;;;;;;5072320;28;20431;-80
2022/09/03 08:31:37;;;;;;;5.65;1.30;;;10.90;99.90;;;;;;5074935;28;20377;-77
2022/09/03 08:34:06;;;;;;;6.57;1.50;;;10.90;99.90;;;;;;5079040;28;20480;-77
2022/09/03 08:36:40;;;;;;;6.10;1.65;;;10.90;99.90;;;;;;5080892;28;20405;-76
2022/09/03 08:39:08;;;;;;;5.28;1.40;;;10.80;99.90;;;;;;5081373;28;20424;-77
2022/09/03 08:41:51;;;;;;;5.90;1.30;;;10.80;99.90;;;;;;5078156;28;20880;-77
2022/09/03 08:44:39;;;;;;;5.97;1.20;;;10.80;99.90;;;;;;5079135;28;20374;-77
2022/09/03 08:47:19;;;;;;;7.32;1.40;;;10.80;99.90;;;;;;5079317;28;20944;-76
2022/09/03 08:50:19;;;;;;;6.43;1.77;;;10.80;99.90;;;;;;5077795;28;20366;-80
2022/09/03 08:53:08;;;;;;;6.45;1.88;;;10.80;99.90;;;;;;5034690;28;20427;-79
2022/09/03 08:55:54;;;;;;;6.50;2.30;;;10.80;99.90;;;;;;5034319;28;20417;-76
2022/09/03 08:58:26;;;;;;;9.75;2.63;;;10.70;99.90;;;;;;5033968;28;20420;-79
2022/09/03 09:01:02;;;;;;;7.13;2.00;;;10.70;99.90;;;;;;5033877;28;20400;-79
2022/09/03 09:03:42;;;;;;;7.07;1.60;;;10.60;99.90;;;;;;5034034;28;20478;-80
2022/09/03 09:06:47;;;;;;;5.35;1.50;;;10.70;99.90;;;;;;5033920;28;20408;-77
2022/09/03 09:09:32;;;;;;;5.85;1.50;;;10.60;99.90;;;;;;5033643;28;20441;-78
2022/09/03 09:12:26;;;;;;;6.07;1.42;;;10.60;99.90;;;;;;5033677;28;20445;-76
2022/09/03 09:15:12;;;;;;;12.80;1.70;;;10.70;99.90;;;;;;5038398;28;20815;-78
2022/09/03 09:17:46;;;;;;;7.05;1.70;;;10.70;99.90;;;;;;5037037;28;20409;-79
2022/09/03 09:20:26;;;;;;;6.37;1.57;;;10.70;99.90;;;;;;5039097;28;20904;-76
2022/09/03 09:23:07;;;;;;;6.55;1.75;;;10.80;99.90;;;;;;5036983;28;20464;-75
2022/09/03 09:25:42;;;;;;;5.03;1.65;;;10.70;99.90;;;;;;5038073;28;20390;-75
2022/09/03 09:28:15;;;;;;;10.05;1.70;;;10.70;99.90;;;;;;5076800;28;20382;-76
2022/09/03 09:30:47;;;;;;;7.72;1.92;;;10.60;99.90;;;;;;5079722;28;20459;-76
2022/09/03 09:33:15;;;;;;;8.13;1.70;;;10.60;99.90;;;;;;5078487;28;20397;-75
2022/09/03 09:35:43;;;;;;;8.13;1.73;;;10.60;99.90;;;;;;5078309;28;20760;-75
2022/09/03 09:38:13;;;;;;;7.32;1.77;;;10.60;99.90;;;;;;5078280;28;20888;-77
2022/09/03 09:40:43;;;;;;;6.95;1.85;;;10.50;99.90;;;;;;5078306;28;20393;-76
2022/09/03 09:43:15;;;;;;;7.35;1.73;;;10.50;99.90;;;;;;5075743;28;20940;-75
2022/09/03 09:45:53;;;;;;;7.32;1.60;;;10.40;99.90;;;;;;5075913;28;20742;-75
2022/09/03 09:48:30;;;;;;;8.02;1.70;;;10.40;99.90;;;;;;5077369;28;20382;-76
2022/09/03 09:51:12;;;;;;;6.40;1.70;;;10.40;99.90;;;;;;5077190;28;20378;-76
2022/09/03 09:53:40;;;;;;;6.85;1.70;;;10.30;99.90;;;;;;5076335;28;20734;-76
2022/09/03 09:56:08;;;;;;;7.18;1.80;;;10.30;99.90;;;;;;5076697;28;20391;-76
2022/09/03 09:58:38;;;;;;;6.15;1.58;;;10.30;99.90;;;;;;5076770;28;20366;-75
2022/09/03 10:01:14;;;;;;;6.43;1.45;;;10.20;99.90;;;;;;5078679;28;20366;-80
2022/09/03 10:03:59;;;;;;;6.55;1.50;;;10.20;99.90;;;;;;5079182;28;20377;-76
2022/09/03 10:09:22;;;;;;;4.63;1.30;;;10.50;99.90;;;;;;5076314;28;20448;-76
2022/09/03 10:12:13;;;;;;;6.73;1.60;;;10.50;99.90;;;;;;5077706;28;20452;-76
2022/09/03 10:14:56;;;;;;;4.70;1.25;;;10.50;99.90;;;;;;5076070;28;20416;-77
2022/09/03 10:17:47;;;;;;;5.90;1.60;;;10.50;99.90;;;;;;5075929;28;20409;-74
2022/09/03 10:20:39;;;;;;;7.60;1.55;;;10.50;99.90;;;;;;5075828;28;20412;-78
2022/09/03 10:23:13;;;;;;;7.33;1.90;;;10.50;99.90;;;;;;5076492;28;20370;-76
2022/09/03 10:25:52;;;;;;;7.50;1.63;;;10.50;99.90;;;;;;5076408;28;20706;-77
2022/09/03 10:28:24;;;;;;;7.28;1.80;;;10.50;99.90;;;;;;5076354;28;20366;-77
2022/09/03 10:31:14;;;;;;;12.20;2.92;;;10.50;99.90;;;;;;5075901;28;20451;-76
2022/09/03 10:33:47;;;;;;;6.50;1.77;;;10.50;99.90;;;;;;5076258;28;20393;-77
2022/09/03 10:36:21;;;;;;;6.30;1.70;;;10.70;99.90;;;;;;5074202;28;20764;-75
2022/09/03 10:39:21;;;;;;;6.80;1.60;;;10.80;99.90;;;;;;5075497;28;20378;-77
2022/09/03 10:41:58;;;;;;;10.27;1.80;;;10.80;99.90;;;;;;5075342;28;20546;-73
2022/09/03 10:44:45;;;;;;;7.87;1.53;;;10.90;99.90;;;;;;5075621;28;20378;-74
2022/09/03 10:47:31;;;;;;;6.97;1.70;;;10.90;99.90;;;;;;5075529;28;20370;-76
2022/09/03 10:50:15;;;;;;;8.48;1.83;;;10.90;99.90;;;;;;5075587;28;20409;-76
2022/09/03 10:52:42;;;;;;;8.45;1.70;;;10.90;99.90;;;;;;5074577;28;20373;-76
2022/09/03 10:55:38;;;;;;;7.93;1.42;;;10.90;99.90;;;;;;5074457;28;20394;-74
2022/09/03 10:58:42;;;;;;;8.10;1.57;;;10.90;99.90;;;;;;5075605;28;20900;-79
2022/09/03 11:01:29;;;;;;;7.37;1.80;;;10.90;99.90;;;;;;5075737;28;20430;-77
2022/09/03 11:04:33;;;;;;;5.88;1.60;;;11.00;99.90;;;;;;5073914;28;20857;-78
2022/09/03 11:07:04;;;;;;;6.35;1.70;;;10.90;99.90;;;;;;5075783;28;20381;-76
2022/09/03 11:09:47;;;;;;;9.05;1.70;;;10.80;99.90;;;;;;5075931;28;20416;-76
2022/09/03 11:12:38;;;;;;;7.93;1.60;;;10.80;99.90;;;;;;5075232;28;20383;-76
2022/09/03 11:15:42;;;;;;;6.43;1.50;;;10.70;99.90;;;;;;5074643;28;20726;-77
2022/09/03 11:18:53;;;;;;;6.50;1.58;;;10.70;99.90;;;;;;5073185;28;20366;-77
2022/09/03 11:21:27;;;;;;;6.90;1.50;;;10.60;99.90;;;;;;5031211;28;20404;-77
2022/09/03 11:24:19;;;;;;;5.82;1.50;;;10.60;99.90;;;;;;5031124;28;20365;-79
2022/09/03 11:26:56;;;;;;;5.65;1.50;;;10.70;99.90;;;;;;5030941;28;20773;-78
2022/09/03 11:29:51;;;;;;;7.43;1.63;;;10.60;99.90;;;;;;5031110;28;20834;-79
2022/09/03 11:32:27;;;;;;;6.10;1.40;;;10.60;99.90;;;;;;5031929;28;20397;-78
2022/09/03 11:34:55;;;;;;;6.10;1.45;;;10.50;99.90;;;;;;5032897;28;20381;-76
2022/09/03 11:37:30;;;;;;;6.55;1.55;;;10.50;99.90;;;;;;5032462;28;20479;-79
2022/09/03 11:40:06;;;;;;;6.20;1.52;;;10.40;99.90;;;;;;5033105;28;20719;-79
2022/09/03 11:42:41;;;;;;;6.95;1.50;;;10.40;99.90;;;;;;5017029;28;20386;-78
2022/09/03 11:45:23;;;;;;;5.72;1.38;;;10.30;99.90;;;;;;5033913;28;20416;-76
2022/09/03 11:48:18;;;;;;;5.95;1.40;;;10.30;99.90;;;;;;5033654;28;20388;-78
2022/09/03 11:50:54;;;;;;;5.70;1.60;;;10.30;99.90;;;;;;5034938;28;20362;-75
2022/09/03 11:53:37;;;;;;;6.10;1.35;;;10.30;99.90;;;;;;5020761;28;20386;-77
2022/09/03 11:56:07;;;;;;;4.45;1.30;;;10.40;99.90;;;;;;5038725;28;20385;-78
2022/09/03 11:58:38;;;;;;;5.43;1.30;;;10.40;99.90;;;;;;5073583;28;20460;-78
2022/09/03 12:01:14;;;;;;;4.78;1.15;;;10.40;99.90;;;;;;5074822;28;20354;-78
2022/09/03 12:03:44;;;;;;;4.97;1.15;;;10.40;99.90;;;;;;5074645;28;20385;-77
2022/09/03 12:06:42;;;;;;;5.57;1.20;;;10.40;99.90;;;;;;5073124;28;20369;-79
2022/09/03 12:09:35;;;;;;;5.05;1.30;;;10.30;99.90;;;;;;5073585;28;20370;-79
2022/09/03 12:12:29;;;;;;;4.55;1.23;;;10.30;99.90;;;;;;5072903;28;20376;-77
2022/09/03 12:15:26;;;;;;;5.23;1.23;;;10.30;99.90;;;;;;5072899;28;20399;-77
2022/09/03 12:18:21;;;;;;;4.80;1.10;;;10.20;99.90;;;;;;5072540;28;20394;-79
2022/09/03 12:21:05;;;;;;;6.15;1.20;;;10.20;99.90;;;;;;5072320;28;20929;-77
2022/09/03 12:23:43;;;;;;;3.77;1.07;;;10.10;99.90;;;;;;5072941;28;20374;-77
2022/09/03 12:26:20;;;;;;;5.20;1.17;;;10.10;99.90;;;;;;5072350;28;20370;-79
2022/09/03 12:28:50;;;;;;;6.35;1.30;;;10.00;99.90;;;;;;5072299;28;20392;-77
2022/09/03 12:31:24;;;;;;;6.13;1.30;;;9.90;99.90;;;;;;5072257;28;20374;-78
2022/09/03 12:34:00;;;;;;;5.00;1.10;;;10.00;99.90;;;;;;5072099;28;20425;-80
2022/09/03 12:36:50;;;;;;;4.47;1.20;;;9.90;99.90;;;;;;5072626;28;20420;-76
2022/09/03 12:39:19;;;;;;;6.13;1.20;;;9.90;99.90;;;;;;5072357;28;20362;-78
2022/09/03 12:42:05;;;;;;;5.07;1.30;;;9.80;99.90;;;;;;5072268;28;20749;-77
2022/09/03 12:44:35;;;;;;;6.10;1.30;;;9.80;99.90;;;;;;5072171;28;20865;-79
2022/09/03 12:47:20;;;;;;;5.68;1.40;;;9.80;99.90;;;;;;5072043;28;20389;-77
2022/09/03 12:49:56;;;;;;;4.38;1.40;;;9.90;99.90;;;;;;5070580;28;20881;-77
2022/09/03 12:52:37;;;;;;;4.22;1.23;;;9.90;99.90;;;;;;5071788;28;20946;-77
2022/09/03 12:55:28;;;;;;;5.60;1.23;;;9.90;99.90;;;;;;5072147;28;20647;-77
2022/09/03 12:58:22;;;;;;;4.68;1.30;;;10.00;99.90;;;;;;5066468;28;20456;-78
2022/09/03 13:01:17;;;;;;;4.18;1.30;;;10.10;99.90;;;;;;5071770;28;20370;-78
2022/09/03 13:04:04;;;;;;;4.43;1.30;;;10.10;99.90;;;;;;5071782;28;20455;-76
2022/09/03 13:07:00;;;;;;;5.20;1.27;;;10.10;99.90;;;;;;5072209;28;20362;-74
2022/09/03 13:09:28;;;;;;;7.28;1.40;;;10.10;99.90;;;;;;5071935;28;20378;-76
2022/09/03 13:11:58;;;;;;;5.80;1.40;;;10.10;99.90;;;;;;5072118;28;20385;-75
2022/09/03 13:14:26;;;;;;;9.77;1.90;;;10.00;99.90;;;;;;5071933;28;20374;-74
2022/09/03 13:16:53;;;;;;;8.20;1.60;;;10.00;99.90;;;;;;5071446;28;20481;-74
2022/09/03 13:19:26;;;;;;;5.38;1.45;;;10.00;99.90;;;;;;5074600;28;20362;-75
2022/09/03 13:22:19;;;;;;;7.18;1.50;;;10.10;99.90;;;;;;5075347;28;20701;-75
2022/09/03 13:25:13;;;;;;;5.40;1.50;;;10.10;99.90;;;;;;5075294;28;20368;-77
2022/09/03 13:28:01;;;;;;;4.57;1.40;;;10.00;99.90;;;;;;5075294;28;20885;-76
2022/09/03 13:31:04;;;;;;;4.20;1.25;;;10.10;99.90;;;;;;5075418;28;20457;-76
2022/09/03 13:33:43;;;;;;;6.60;1.38;;;10.10;99.90;;;;;;5074937;28;20390;-76
2022/09/03 13:36:33;;;;;;;5.18;1.40;;;10.00;99.90;;;;;;5075053;28;20393;-76
2022/09/03 13:39:37;;;;;;;7.13;1.27;;;10.10;99.90;;;;;;5073887;28;20374;-76